createdAt,value
2018-11-10T00:02:28.597Z,63.13
2018-11-10T00:04:57.517Z,63.31
2018-11-10T00:07:26.437Z,62.82
2018-11-10T00:10:11.172Z,62.75
2018-11-10T00:12:40.125Z,62.80
2018-11-10T00:15:11.041Z,62.34
2018-11-10T00:17:39.982Z,63.11
2018-11-10T00:20:09.013Z,62.15
2018-11-10T00:22:39.044Z,62.70
2018-11-10T00:25:09.349Z,62.80
2018-11-10T00:27:38.274Z,62.81
2018-11-10T00:30:08.901Z,62.55
2018-11-10T00:32:37.821Z,62.91
2018-11-10T00:35:06.950Z,62.92
2018-11-10T00:37:35.886Z,63.18
2018-11-10T00:40:05.361Z,62.91
2018-11-10T00:42:34.293Z,62.74
2018-11-10T00:45:03.274Z,62.84
2018-11-10T00:47:32.179Z,62.63
2018-11-10T00:50:01.095Z,62.96
2018-11-10T00:52:30.019Z,62.74
2018-11-10T00:54:58.953Z,62.34
2018-11-10T00:57:27.929Z,62.66
2018-11-10T00:59:56.854Z,62.53
2018-11-10T01:02:25.769Z,62.30
2018-11-10T01:04:54.693Z,61.99
2018-11-10T01:07:23.594Z,62.38
2018-11-10T01:09:52.521Z,62.44
2018-11-10T01:12:21.424Z,62.54
2018-11-10T01:14:50.342Z,62.32
2018-11-10T01:17:19.241Z,61.78
2018-11-10T01:19:48.171Z,61.25
2018-11-10T01:22:17.057Z,61.80
2018-11-10T01:24:45.977Z,61.56
2018-11-10T01:27:14.896Z,61.64
2018-11-10T01:29:43.829Z,61.74
2018-11-10T01:32:12.736Z,62.00
2018-11-10T01:34:41.644Z,62.64
2018-11-10T01:37:10.553Z,62.52
2018-11-10T01:39:39.501Z,63.37
2018-11-10T01:42:08.422Z,63.30
2018-11-10T01:44:37.373Z,63.21
2018-11-10T01:47:06.305Z,63.48
2018-11-10T01:49:35.246Z,63.60
2018-11-10T01:52:04.187Z,63.64
2018-11-10T01:54:33.122Z,63.47
2018-11-10T01:57:02.025Z,63.74
2018-11-10T01:59:30.953Z,63.98
2018-11-10T02:01:59.881Z,64.30
2018-11-10T02:04:28.818Z,64.47
2018-11-10T02:06:57.712Z,64.52
2018-11-10T02:09:26.664Z,64.66
2018-11-10T02:11:55.566Z,64.67
2018-11-10T02:14:24.498Z,65.25
2018-11-10T02:16:53.444Z,64.47
2018-11-10T02:19:22.443Z,65.37
2018-11-10T02:21:51.386Z,65.34
2018-11-10T02:24:20.382Z,66.13
2018-11-10T02:26:49.325Z,65.21
2018-11-10T02:29:18.245Z,65.11
2018-11-10T02:31:47.200Z,65.56
2018-11-10T02:34:16.117Z,65.37
2018-11-10T02:36:45.062Z,65.19
2018-11-10T02:39:13.989Z,64.95
2018-11-10T02:41:42.928Z,65.17
2018-11-10T02:44:11.856Z,65.11
2018-11-10T02:46:40.777Z,64.99
2018-11-10T02:49:09.721Z,64.49
2018-11-10T02:51:38.657Z,64.15
2018-11-10T02:54:07.558Z,64.35
2018-11-10T02:56:36.508Z,64.05
2018-11-10T02:59:05.458Z,64.14
2018-11-10T03:01:34.397Z,64.02
2018-11-10T03:04:03.332Z,64.41
2018-11-10T03:06:32.240Z,64.14
2018-11-10T03:09:01.153Z,64.23
2018-11-10T03:11:30.112Z,64.17
2018-11-10T03:13:59.041Z,64.96
2018-11-10T03:16:28.019Z,64.30
2018-11-10T03:18:56.917Z,64.28
2018-11-10T03:21:25.853Z,64.50
2018-11-10T03:23:54.781Z,63.79
2018-11-10T03:26:23.717Z,64.10
2018-11-10T03:28:52.665Z,64.96
2018-11-10T03:31:21.766Z,64.69
2018-11-10T03:33:50.730Z,64.59
2018-11-10T03:36:19.657Z,64.91
2018-11-10T03:38:48.596Z,65.25
2018-11-10T03:41:17.553Z,64.80
2018-11-10T03:43:46.468Z,64.66
2018-11-10T03:46:15.415Z,64.06
2018-11-10T03:48:44.407Z,64.04
2018-11-10T03:51:13.284Z,63.46
2018-11-10T03:53:42.500Z,63.13
2018-11-10T03:56:11.436Z,63.56
2018-11-10T03:58:40.358Z,63.59
2018-11-10T04:01:09.294Z,63.63
2018-11-10T04:03:38.233Z,63.10
2018-11-10T04:06:07.167Z,63.57
2018-11-10T04:08:36.095Z,63.42
2018-11-10T04:11:05.278Z,63.48
2018-11-10T04:13:34.197Z,63.18
2018-11-10T04:16:03.145Z,62.85
2018-11-10T04:18:32.062Z,63.28
2018-11-10T04:21:01.001Z,62.42
2018-11-10T04:23:29.942Z,62.42
2018-11-10T04:25:58.882Z,62.30
2018-11-10T04:28:27.805Z,62.24
2018-11-10T04:30:56.709Z,62.06
2018-11-10T04:33:25.645Z,61.69
2018-11-10T04:35:54.577Z,61.55
2018-11-10T04:38:23.531Z,61.48
2018-11-10T04:40:52.449Z,61.71
2018-11-10T04:43:21.369Z,62.10
2018-11-10T04:45:50.285Z,61.33
2018-11-10T04:48:19.217Z,61.95
2018-11-10T04:50:48.153Z,61.74
2018-11-10T04:53:17.073Z,62.01
2018-11-10T04:55:45.964Z,62.89
2018-11-10T04:58:14.906Z,63.12
2018-11-10T05:00:43.796Z,62.67
2018-11-10T05:03:12.701Z,62.45
2018-11-10T05:05:41.606Z,63.05
2018-11-10T05:08:10.516Z,62.55
2018-11-10T05:10:39.429Z,62.88
2018-11-10T05:13:08.337Z,62.76
2018-11-10T05:15:37.241Z,62.59
2018-11-10T05:18:06.167Z,63.35
2018-11-10T05:20:35.075Z,63.16
2018-11-10T05:23:04.060Z,63.38
2018-11-10T05:25:32.909Z,63.32
2018-11-10T05:28:01.820Z,63.29
2018-11-10T05:30:30.713Z,63.27
2018-11-10T05:32:59.641Z,63.67
2018-11-10T05:35:28.551Z,63.49
2018-11-10T05:37:57.461Z,63.41
2018-11-10T05:40:26.413Z,62.86
2018-11-10T05:42:55.329Z,62.68
2018-11-10T05:45:24.247Z,61.93
2018-11-10T05:47:53.189Z,62.61
2018-11-10T05:50:22.098Z,62.10
2018-11-10T05:52:51.028Z,61.97
2018-11-10T05:55:19.934Z,61.35
2018-11-10T05:57:48.873Z,61.55
2018-11-10T06:00:17.789Z,61.24
2018-11-10T06:02:46.745Z,61.82
2018-11-10T06:05:15.666Z,61.39
2018-11-10T06:07:44.590Z,61.31
2018-11-10T06:10:13.633Z,62.11
2018-11-10T06:12:43.172Z,61.34
2018-11-10T06:15:12.102Z,61.54
2018-11-10T06:17:41.109Z,61.09
2018-11-10T06:20:11.666Z,60.88
2018-11-10T06:22:40.628Z,60.86
2018-11-10T06:25:10.482Z,61.25
2018-11-10T06:27:39.511Z,60.78
2018-11-10T06:30:10.492Z,60.83
2018-11-10T06:32:39.799Z,60.40
2018-11-10T06:35:09.118Z,60.62
2018-11-10T06:37:38.174Z,60.39
2018-11-10T06:40:08.861Z,60.41
2018-11-10T06:42:37.797Z,60.84
2018-11-10T06:45:06.818Z,60.65
2018-11-10T06:47:36.236Z,61.36
2018-11-10T06:50:06.686Z,61.44
2018-11-10T06:52:35.641Z,61.23
2018-11-10T06:55:05.193Z,61.00
2018-11-10T06:57:34.153Z,61.09
2018-11-10T07:00:03.345Z,61.71
2018-11-10T07:02:32.258Z,61.20
2018-11-10T07:05:01.185Z,61.47
2018-11-10T07:07:30.093Z,60.92
2018-11-10T07:09:59.042Z,60.48
2018-11-10T07:12:27.976Z,60.91
2018-11-10T07:14:56.917Z,61.18
2018-11-10T07:17:25.882Z,61.03
2018-11-10T07:19:54.762Z,61.24
2018-11-10T07:22:23.673Z,61.43
2018-11-10T07:24:52.663Z,60.67
2018-11-10T07:27:21.573Z,60.56
2018-11-10T07:29:50.508Z,60.85
2018-11-10T07:32:19.418Z,60.63
2018-11-10T07:34:48.361Z,60.64
2018-11-10T07:37:17.322Z,60.64
2018-11-10T07:39:46.232Z,60.48
2018-11-10T07:42:15.141Z,60.06
2018-11-10T07:44:44.066Z,59.52
2018-11-10T07:47:12.957Z,59.51
2018-11-10T07:49:41.878Z,59.41
2018-11-10T07:52:10.853Z,58.93
2018-11-10T07:54:39.829Z,59.31
2018-11-10T07:57:09.757Z,59.71
2018-11-10T07:59:39.022Z,60.07
2018-11-10T08:02:08.490Z,60.25
2018-11-10T08:04:37.436Z,60.81
2018-11-10T08:07:06.340Z,61.36
2018-11-10T08:09:35.371Z,61.34
2018-11-10T08:12:04.367Z,61.22
2018-11-10T08:14:33.282Z,62.43
2018-11-10T08:17:02.210Z,62.42
2018-11-10T08:19:31.142Z,62.77
2018-11-10T08:22:00.989Z,62.67
2018-11-10T08:24:29.932Z,63.33
2018-11-10T08:26:58.858Z,64.16
2018-11-10T08:29:27.786Z,64.12
2018-11-10T08:31:56.697Z,64.80
2018-11-10T08:34:25.637Z,65.22
2018-11-10T08:36:54.549Z,65.32
2018-11-10T08:39:23.582Z,65.23
2018-11-10T08:41:52.482Z,65.25
2018-11-10T08:44:21.463Z,65.45
2018-11-10T08:46:50.381Z,65.38
2018-11-10T08:49:19.460Z,65.19
2018-11-10T08:51:48.329Z,65.90
2018-11-10T08:54:17.301Z,65.54
2018-11-10T08:56:46.226Z,65.81
2018-11-10T08:59:15.262Z,65.73
2018-11-10T09:01:44.125Z,65.68
2018-11-10T09:04:13.054Z,65.72
2018-11-10T09:06:41.966Z,65.33
2018-11-10T09:09:11.633Z,64.84
2018-11-10T09:11:40.656Z,65.46
2018-11-10T09:14:09.749Z,65.22
2018-11-10T09:16:38.652Z,64.34
2018-11-10T09:19:07.630Z,64.81
2018-11-10T09:21:36.662Z,63.99
2018-11-10T09:24:05.803Z,64.10
2018-11-10T09:26:34.729Z,63.54
2018-11-10T09:29:04.165Z,63.35
2018-11-10T09:31:33.107Z,63.93
2018-11-10T09:34:02.017Z,63.75
2018-11-10T09:36:31.036Z,63.44
2018-11-10T09:38:59.937Z,63.12
2018-11-10T09:41:28.865Z,63.38
2018-11-10T09:43:57.764Z,63.36
2018-11-10T09:46:26.700Z,63.37
2018-11-10T09:48:55.706Z,63.53
2018-11-10T09:51:24.642Z,63.78
2018-11-10T09:53:53.553Z,62.85
2018-11-10T09:56:22.517Z,63.62
2018-11-10T09:58:51.425Z,63.00
2018-11-10T10:01:20.442Z,62.71
2018-11-10T10:03:49.324Z,63.17
2018-11-10T10:06:18.266Z,62.47
2018-11-10T10:08:47.201Z,62.61
2018-11-10T10:11:16.223Z,62.29
2018-11-10T10:13:45.149Z,62.08
2018-11-10T10:16:14.163Z,62.75
2018-11-10T10:18:42.990Z,62.96
2018-11-10T10:21:11.989Z,62.77
2018-11-10T10:23:40.900Z,62.22
2018-11-10T10:26:09.891Z,61.96
2018-11-10T10:28:38.882Z,61.68
2018-11-10T10:31:08.305Z,61.54
2018-11-10T10:33:37.349Z,61.23
2018-11-10T10:36:06.450Z,61.36
2018-11-10T10:38:35.961Z,60.55
2018-11-10T10:41:04.965Z,60.32
2018-11-10T10:43:33.887Z,59.73
2018-11-10T10:46:02.821Z,60.16
2018-11-10T10:48:31.818Z,61.32
2018-11-10T10:51:00.822Z,61.06
2018-11-10T10:53:30.686Z,60.92
2018-11-10T10:56:00.605Z,61.38
2018-11-10T10:58:30.501Z,61.32
2018-11-10T11:01:05.472Z,61.48
2018-11-10T11:03:39.853Z,61.29
2018-11-10T11:06:08.819Z,61.16
2018-11-10T11:08:37.729Z,60.73
2018-11-10T11:11:06.693Z,60.78
2018-11-10T11:13:35.687Z,61.40
2018-11-10T11:16:05.159Z,61.67
2018-11-10T11:18:34.108Z,61.73
2018-11-10T11:21:03.078Z,62.71
2018-11-10T11:23:33.067Z,62.91
2018-11-10T11:26:02.025Z,63.62
2018-11-10T11:28:31.049Z,62.95
2018-11-10T11:31:00.026Z,63.41
2018-11-10T11:33:29.045Z,64.88
2018-11-10T11:35:58.034Z,63.87
2018-11-10T11:38:26.985Z,64.20
2018-11-10T11:40:57.167Z,64.46
2018-11-10T11:43:26.027Z,64.45
2018-11-10T11:45:54.998Z,65.39
2018-11-10T11:48:23.927Z,64.59
2018-11-10T11:50:52.841Z,64.58
2018-11-10T11:53:21.797Z,64.54
2018-11-10T11:55:50.718Z,65.11
2018-11-10T11:58:19.700Z,64.85
2018-11-10T12:00:48.585Z,65.39
2018-11-10T12:03:17.502Z,66.05
2018-11-10T12:05:46.446Z,66.04
2018-11-10T12:08:15.413Z,65.94
2018-11-10T12:10:44.327Z,65.91
2018-11-10T12:13:13.273Z,66.44
2018-11-10T12:15:42.210Z,66.20
2018-11-10T12:18:11.157Z,65.96
2018-11-10T12:20:40.112Z,65.86
2018-11-10T12:23:09.043Z,65.83
2018-11-10T12:25:37.951Z,65.55
2018-11-10T12:28:06.891Z,65.37
2018-11-10T12:30:35.932Z,65.64
2018-11-10T12:33:05.033Z,64.90
2018-11-10T12:35:33.975Z,64.97
2018-11-10T12:38:02.938Z,64.24
2018-11-10T12:40:31.884Z,64.44
2018-11-10T12:43:00.816Z,65.32
2018-11-10T12:45:30.235Z,64.84
2018-11-10T12:47:59.181Z,64.95
2018-11-10T12:50:28.113Z,64.83
2018-11-10T12:52:57.057Z,64.21
2018-11-10T12:55:26.041Z,64.74
2018-11-10T12:57:55.019Z,64.31
2018-11-10T13:00:23.898Z,64.32
2018-11-10T13:02:52.828Z,64.81
2018-11-10T13:05:21.762Z,64.96
2018-11-10T13:07:50.733Z,64.00
2018-11-10T13:10:19.658Z,64.11
2018-11-10T13:12:48.597Z,63.80
2018-11-10T13:15:17.559Z,63.64
2018-11-10T13:17:46.549Z,63.39
2018-11-10T13:20:16.145Z,63.75
2018-11-10T13:22:45.085Z,63.54
2018-11-10T13:25:14.624Z,63.56
2018-11-10T13:27:43.548Z,63.40
2018-11-10T13:30:13.957Z,62.95
2018-11-10T13:32:44.125Z,62.96
2018-11-10T13:35:13.079Z,63.75
2018-11-10T13:37:42.011Z,63.67
2018-11-10T13:40:11.129Z,63.72
2018-11-10T13:42:40.054Z,63.74
2018-11-10T13:45:10.542Z,63.56
2018-11-10T13:47:39.585Z,63.40
2018-11-10T13:50:09.804Z,63.46
2018-11-10T13:52:39.707Z,63.71
2018-11-10T13:55:08.296Z,63.49
2018-11-10T13:57:37.237Z,63.70
2018-11-10T14:00:09.013Z,63.66
2018-11-10T14:02:37.926Z,63.82
2018-11-10T14:05:06.945Z,64.11
2018-11-10T14:07:35.979Z,63.71
2018-11-10T14:10:05.537Z,63.77
2018-11-10T14:12:34.551Z,64.06
2018-11-10T14:15:03.404Z,63.66
2018-11-10T14:17:32.305Z,63.66
2018-11-10T14:20:01.330Z,63.46
2018-11-10T14:22:30.233Z,63.44
2018-11-10T14:24:59.168Z,63.55
2018-11-10T14:27:28.076Z,63.60
2018-11-10T14:29:57.002Z,64.15
2018-11-10T14:32:25.917Z,63.82
2018-11-10T14:34:54.855Z,64.13
2018-11-10T14:37:23.743Z,64.39
2018-11-10T14:39:52.698Z,64.24
2018-11-10T14:42:21.595Z,64.39
2018-11-10T14:44:50.513Z,65.07
2018-11-10T14:47:19.414Z,64.90
2018-11-10T14:49:48.355Z,65.42
2018-11-10T14:52:17.454Z,65.41
2018-11-10T14:54:46.337Z,65.10
2018-11-10T14:57:15.246Z,65.35
2018-11-10T14:59:44.177Z,65.94
2018-11-10T15:02:13.089Z,65.33
2018-11-10T15:04:42.013Z,65.15
2018-11-10T15:07:10.943Z,66.18
2018-11-10T15:09:40.748Z,65.36
2018-11-10T15:12:09.658Z,66.10
2018-11-10T15:14:38.561Z,65.54
2018-11-10T15:17:07.473Z,65.95
2018-11-10T15:19:36.397Z,66.15
2018-11-10T15:22:05.765Z,66.26
2018-11-10T15:24:34.697Z,65.70
2018-11-10T15:27:03.608Z,65.93
2018-11-10T15:29:32.539Z,66.18
2018-11-10T15:32:01.440Z,65.74
2018-11-10T15:34:30.381Z,65.11
2018-11-10T15:36:59.297Z,65.06
2018-11-10T15:39:28.245Z,65.18
2018-11-10T15:41:57.153Z,65.22
2018-11-10T15:44:26.077Z,64.95
2018-11-10T15:46:54.972Z,64.64
2018-11-10T15:49:23.897Z,64.83
2018-11-10T15:51:52.865Z,63.96
2018-11-10T15:54:22.078Z,64.25
2018-11-10T15:56:51.020Z,64.70
2018-11-10T15:59:19.937Z,64.71
2018-11-10T16:01:48.920Z,64.70
2018-11-10T16:04:17.816Z,64.69
2018-11-10T16:06:46.729Z,64.06
2018-11-10T16:09:15.711Z,63.93
2018-11-10T16:11:44.604Z,63.81
2018-11-10T16:14:13.496Z,64.56
2018-11-10T16:16:42.408Z,63.89
2018-11-10T16:19:11.322Z,63.91
2018-11-10T16:21:40.249Z,64.13
2018-11-10T16:24:09.150Z,64.20
2018-11-10T16:26:38.064Z,63.31
2018-11-10T16:29:06.981Z,64.35
2018-11-10T16:31:35.902Z,64.74
2018-11-10T16:34:04.813Z,64.27
2018-11-10T16:36:33.726Z,64.61
2018-11-10T16:39:02.661Z,65.10
2018-11-10T16:41:31.573Z,64.34
2018-11-10T16:44:00.486Z,64.40
2018-11-10T16:46:29.400Z,63.89
2018-11-10T16:48:58.325Z,63.61
2018-11-10T16:51:27.240Z,63.96
2018-11-10T16:53:56.138Z,63.83
2018-11-10T16:56:25.049Z,63.72
2018-11-10T16:58:53.973Z,63.88
2018-11-10T17:01:23.320Z,63.19
2018-11-10T17:03:52.208Z,63.50
2018-11-10T17:06:21.144Z,63.69
2018-11-10T17:08:50.138Z,63.72
2018-11-10T17:11:18.997Z,63.40
2018-11-10T17:13:47.917Z,63.87
2018-11-10T17:16:16.921Z,64.33
2018-11-10T17:18:45.927Z,63.41
2018-11-10T17:21:14.859Z,63.65
2018-11-10T17:23:43.811Z,64.39
2018-11-10T17:26:12.742Z,63.54
2018-11-10T17:28:41.675Z,64.17
2018-11-10T17:31:10.597Z,63.81
2018-11-10T17:33:39.529Z,63.94
2018-11-10T17:36:08.453Z,63.61
2018-11-10T17:38:37.401Z,63.38
2018-11-10T17:41:06.409Z,63.06
2018-11-10T17:43:35.337Z,63.21
2018-11-10T17:46:04.319Z,63.75
2018-11-10T17:48:33.393Z,63.83
2018-11-10T17:51:02.234Z,63.53
2018-11-10T17:53:31.151Z,63.96
2018-11-10T17:56:00.066Z,63.52
2018-11-10T17:58:29.087Z,63.26
2018-11-10T18:00:57.929Z,63.68
2018-11-10T18:03:26.897Z,64.03
2018-11-10T18:05:55.822Z,63.82
2018-11-10T18:08:24.788Z,64.29
2018-11-10T18:10:53.705Z,63.88
2018-11-10T18:13:22.671Z,64.14
2018-11-10T18:15:51.590Z,64.32
2018-11-10T18:18:20.552Z,64.06
2018-11-10T18:20:49.472Z,64.15
2018-11-10T18:23:18.401Z,64.04
2018-11-10T18:25:48.116Z,63.89
2018-11-10T18:28:17.318Z,64.09
2018-11-10T18:30:46.233Z,64.18
2018-11-10T18:35:56.330Z,64.36
2018-11-10T18:38:25.299Z,63.56
2018-11-10T18:40:54.241Z,63.96
2018-11-10T18:43:23.211Z,63.24
2018-11-10T18:45:52.153Z,63.33
2018-11-10T18:48:21.153Z,63.85
2018-11-10T18:50:50.090Z,63.92
2018-11-10T18:53:19.030Z,63.80
2018-11-10T18:55:47.934Z,63.88
2018-11-10T18:58:17.003Z,63.04
2018-11-10T19:00:45.796Z,63.63
2018-11-10T19:03:14.747Z,63.07
2018-11-10T19:05:43.675Z,63.88
2018-11-10T19:08:12.631Z,64.12
2018-11-10T19:10:41.601Z,63.90
2018-11-10T19:13:10.546Z,63.54
2018-11-10T19:15:39.486Z,64.08
2018-11-10T19:18:08.457Z,63.75
2018-11-10T19:20:37.417Z,63.92
2018-11-10T19:23:06.436Z,63.91
2018-11-10T19:25:35.323Z,63.80
2018-11-10T19:28:04.282Z,63.83
2018-11-10T19:30:33.228Z,64.42
2018-11-10T19:33:09.217Z,64.33
2018-11-10T19:35:38.182Z,64.11
2018-11-10T19:38:07.159Z,63.93
2018-11-10T19:40:36.133Z,64.07
2018-11-10T19:43:05.168Z,64.04
2018-11-10T19:45:34.130Z,63.99
2018-11-10T19:48:03.106Z,64.13
2018-11-10T19:50:32.196Z,63.65
2018-11-10T19:53:01.598Z,64.00
2018-11-10T19:55:30.601Z,63.80
2018-11-10T19:57:59.610Z,64.00
2018-11-10T20:00:28.650Z,63.93
2018-11-10T20:02:57.614Z,63.88
2018-11-10T20:05:26.602Z,64.51
2018-11-10T20:07:55.579Z,64.09
2018-11-10T20:10:24.540Z,64.10
2018-11-10T20:12:54.471Z,64.11
2018-11-10T20:15:23.418Z,63.73
2018-11-10T20:17:52.390Z,64.02
2018-11-10T20:20:21.389Z,64.47
2018-11-10T20:22:50.392Z,64.16
2018-11-10T20:25:19.941Z,63.90
2018-11-10T20:27:48.894Z,64.15
2018-11-10T20:30:19.641Z,63.57
2018-11-10T20:32:48.706Z,64.13
2018-11-10T20:35:17.661Z,64.22
2018-11-10T20:37:47.154Z,63.71
2018-11-10T20:40:16.591Z,63.79
2018-11-10T20:42:45.583Z,63.47
2018-11-10T20:45:16.478Z,64.56
2018-11-10T20:47:45.442Z,63.84
2018-11-10T20:50:15.162Z,63.66
2018-11-10T20:52:44.141Z,64.09
2018-11-10T20:55:13.734Z,63.91
2018-11-10T20:57:42.721Z,64.49
2018-11-10T21:00:13.818Z,64.73
2018-11-10T21:02:43.618Z,64.31
2018-11-10T21:05:12.993Z,64.44
2018-11-10T21:07:42.098Z,63.95
2018-11-10T21:10:15.055Z,63.79
2018-11-10T21:12:44.925Z,64.16
2018-11-10T21:15:15.613Z,63.59
2018-11-10T21:17:44.637Z,62.63
2018-11-10T21:20:13.965Z,62.44
2018-11-10T21:22:43.314Z,62.12
2018-11-10T21:25:14.121Z,62.30
2018-11-10T21:27:43.265Z,61.97
2018-11-10T21:30:14.506Z,61.73
2018-11-10T21:32:43.640Z,61.49
2018-11-10T21:35:12.723Z,61.22
2018-11-10T21:37:41.549Z,61.16
2018-11-10T21:40:14.000Z,61.30
2018-11-10T21:42:43.320Z,60.83
2018-11-10T21:45:13.110Z,60.99
2018-11-10T21:47:42.069Z,61.07
2018-11-10T21:50:12.540Z,61.45
2018-11-10T21:52:42.359Z,61.86
2018-11-10T21:55:13.074Z,62.25
2018-11-10T21:57:42.634Z,62.62
2018-11-10T22:00:13.204Z,63.77
2018-11-10T22:02:42.863Z,64.03
2018-11-10T22:05:11.933Z,64.41
2018-11-10T22:07:40.869Z,65.93
2018-11-10T22:10:11.952Z,66.21
2018-11-10T22:12:41.113Z,67.57
2018-11-10T22:15:12.610Z,67.93
2018-11-10T22:17:42.539Z,67.93
2018-11-10T22:20:12.991Z,68.28
2018-11-10T22:22:42.071Z,68.19
2018-11-10T22:25:11.825Z,68.09
2018-11-10T22:27:42.388Z,68.25
2018-11-10T22:30:13.117Z,67.78
2018-11-10T22:32:42.433Z,68.26
2018-11-10T22:35:11.495Z,68.35
2018-11-10T22:37:40.789Z,68.61
2018-11-10T22:40:11.709Z,69.52
2018-11-10T22:42:41.153Z,69.49
2018-11-10T22:45:11.749Z,69.67
2018-11-10T22:47:41.279Z,69.22
2018-11-10T22:50:12.550Z,69.51
2018-11-10T22:52:41.516Z,69.19
2018-11-10T22:55:10.717Z,69.42
2018-11-10T22:57:39.757Z,69.81
2018-11-10T23:00:18.239Z,69.30
2018-11-10T23:02:49.332Z,69.20
2018-11-10T23:05:18.815Z,69.12
2018-11-10T23:07:47.746Z,69.28
2018-11-10T23:10:17.236Z,69.56
2018-11-10T23:12:47.016Z,68.83
2018-11-10T23:15:15.913Z,68.83
2018-11-10T23:17:44.817Z,68.29
2018-11-10T23:20:15.467Z,69.09
2018-11-10T23:22:44.482Z,68.80
2018-11-10T23:25:15.693Z,68.68
2018-11-10T23:27:44.583Z,68.34
2018-11-10T23:30:15.861Z,68.63
2018-11-10T23:32:44.796Z,68.21
2018-11-10T23:35:13.737Z,68.82
2018-11-10T23:37:42.651Z,68.72
2018-11-10T23:40:13.245Z,68.96
2018-11-10T23:42:42.533Z,68.89
2018-11-10T23:45:11.925Z,69.06
2018-11-10T23:47:40.835Z,68.57
2018-11-10T23:50:12.009Z,68.77
2018-11-10T23:52:40.937Z,69.37
2018-11-10T23:55:10.982Z,68.72
2018-11-10T23:57:40.041Z,68.94
